createdAt,value
2023-02-22T00:02:29.247Z,100.00
2023-02-22T00:05:31.540Z,100.00
2023-02-22T00:08:36.004Z,100.00
2023-02-22T00:11:38.525Z,100.00
2023-02-22T00:14:40.345Z,100.00
2023-02-22T00:17:42.457Z,100.00
2023-02-22T00:20:44.328Z,100.00
2023-02-22T00:23:47.637Z,100.00
2023-02-22T00:26:55.395Z,100.00
2023-02-22T00:29:56.815Z,100.00
2023-02-22T00:32:59.600Z,100.00
2023-02-22T00:36:01.046Z,100.00
2023-02-22T00:39:02.440Z,100.00
2023-02-22T00:42:04.066Z,100.00
2023-02-22T00:45:06.108Z,100.00
2023-02-22T00:48:10.694Z,100.00
2023-02-22T00:51:12.115Z,100.00
2023-02-22T00:54:14.352Z,100.00
2023-02-22T00:57:18.418Z,100.00
2023-02-22T01:00:23.908Z,100.00
2023-02-22T01:03:26.010Z,100.00
2023-02-22T01:06:29.228Z,100.00
2023-02-22T01:09:32.714Z,100.00
2023-02-22T01:12:35.085Z,100.00
2023-02-22T01:15:39.569Z,100.00
2023-02-22T01:18:41.406Z,100.00
2023-02-22T01:21:43.160Z,100.00
2023-02-22T01:24:44.532Z,100.00
2023-02-22T01:27:46.547Z,100.00
2023-02-22T01:30:48.490Z,100.00
2023-02-22T01:33:51.053Z,100.00
2023-02-22T01:36:52.444Z,100.00
2023-02-22T01:39:53.843Z,100.00
2023-02-22T01:42:57.726Z,100.00
2023-02-22T01:46:22.511Z,100.00
2023-02-22T01:49:32.428Z,100.00
2023-02-22T01:52:33.832Z,100.00
2023-02-22T01:55:35.824Z,100.00
2023-02-22T01:58:39.857Z,100.00
2023-02-22T02:01:45.140Z,100.00
2023-02-22T02:04:46.608Z,100.00
2023-02-22T02:07:49.251Z,100.00
2023-02-22T02:10:56.468Z,100.00
2023-02-22T02:13:58.542Z,100.00
2023-02-22T02:17:02.290Z,100.00
2023-02-22T02:20:15.341Z,100.00
2023-02-22T02:23:44.649Z,100.00
2023-02-22T02:27:11.444Z,100.00
2023-02-22T02:30:41.161Z,100.00
2023-02-22T02:33:51.739Z,100.00
2023-02-22T02:37:10.858Z,100.00
2023-02-22T02:40:17.766Z,100.00
2023-02-22T02:43:29.231Z,100.00
2023-02-22T02:46:51.904Z,100.00
2023-02-22T02:50:02.908Z,100.00
2023-02-22T02:53:07.980Z,100.00
2023-02-22T02:56:09.456Z,100.00
2023-02-22T02:59:43.602Z,100.00
2023-02-22T03:02:58.076Z,100.00
2023-02-22T03:06:29.183Z,100.00
2023-02-22T03:09:45.831Z,100.00
2023-02-22T03:13:09.602Z,100.00
2023-02-22T03:16:32.997Z,100.00
2023-02-22T03:19:42.703Z,100.00
2023-02-22T03:23:11.813Z,100.00
2023-02-22T03:26:23.798Z,100.00
2023-02-22T03:29:35.390Z,100.00
2023-02-22T03:32:43.907Z,100.00
2023-02-22T03:35:59.891Z,100.00
2023-02-22T03:39:04.200Z,100.00
2023-02-22T03:42:12.527Z,100.00
2023-02-22T03:45:17.186Z,100.00
2023-02-22T03:48:39.424Z,100.00
2023-02-22T03:51:42.487Z,100.00
2023-02-22T03:54:44.306Z,100.00
2023-02-22T03:57:50.184Z,100.00
2023-02-22T04:00:53.176Z,100.00
2023-02-22T04:03:54.855Z,100.00
2023-02-22T04:06:56.681Z,100.00
2023-02-22T04:09:58.427Z,100.00
2023-02-22T04:13:00.709Z,100.00
2023-02-22T04:16:02.353Z,100.00
2023-02-22T04:19:03.847Z,100.00
2023-02-22T04:22:05.311Z,100.00
2023-02-22T04:25:10.105Z,100.00
2023-02-22T04:28:11.637Z,100.00
2023-02-22T04:31:21.099Z,100.00
2023-02-22T04:34:23.897Z,100.00
2023-02-22T04:37:25.600Z,100.00
2023-02-22T04:40:27.828Z,100.00
2023-02-22T04:43:29.238Z,100.00
2023-02-22T04:46:51.209Z,100.00
2023-02-22T04:49:52.621Z,100.00
2023-02-22T04:52:54.055Z,100.00
2023-02-22T04:55:56.603Z,100.00
2023-02-22T04:58:58.291Z,100.00
2023-02-22T05:02:00.791Z,100.00
2023-02-22T05:05:02.229Z,100.00
2023-02-22T05:08:03.835Z,100.00
2023-02-22T05:11:05.599Z,100.00
2023-02-22T05:14:07.767Z,100.00
2023-02-22T05:17:09.141Z,100.00
2023-02-22T05:20:21.630Z,100.00
2023-02-22T05:23:23.079Z,100.00
2023-02-22T05:26:24.563Z,100.00
2023-02-22T05:29:25.972Z,100.00
2023-02-22T05:32:27.915Z,100.00
2023-02-22T05:35:29.645Z,100.00
2023-02-22T05:38:31.056Z,100.00
2023-02-22T05:41:32.519Z,100.00
2023-02-22T05:44:33.962Z,100.00
2023-02-22T05:47:35.349Z,100.00
2023-02-22T05:50:36.787Z,100.00
2023-02-22T05:53:38.207Z,100.00
2023-02-22T05:56:39.984Z,100.00
2023-02-22T05:59:41.434Z,100.00
2023-02-22T06:02:42.829Z,100.00
2023-02-22T06:05:44.393Z,100.00
2023-02-22T06:08:46.200Z,100.00
2023-02-22T06:11:47.686Z,100.00
2023-02-22T06:14:49.083Z,100.00
2023-02-22T06:17:51.239Z,100.00
2023-02-22T06:20:53.190Z,100.00
2023-02-22T06:23:54.625Z,100.00
2023-02-22T06:26:57.789Z,100.00
2023-02-22T06:30:00.346Z,100.00
2023-02-22T06:33:01.745Z,100.00
2023-02-22T06:36:03.620Z,100.00
2023-02-22T06:39:04.995Z,100.00
2023-02-22T06:42:06.440Z,100.00
2023-02-22T06:45:08.761Z,100.00
2023-02-22T06:48:10.265Z,100.00
2023-02-22T06:51:11.714Z,100.00
2023-02-22T06:54:13.428Z,100.00
2023-02-22T06:57:14.883Z,100.00
2023-02-22T07:00:19.146Z,100.00
2023-02-22T07:03:20.847Z,100.00
2023-02-22T07:06:22.954Z,100.00
2023-02-22T07:09:24.371Z,100.00
2023-02-22T07:12:25.754Z,100.00
2023-02-22T07:15:29.434Z,100.00
2023-02-22T07:18:31.069Z,100.00
2023-02-22T07:21:32.470Z,100.00
2023-02-22T07:24:35.026Z,100.00
2023-02-22T07:27:37.814Z,100.00
2023-02-22T07:30:39.337Z,100.00
2023-02-22T07:33:40.806Z,100.00
2023-02-22T07:36:42.181Z,100.00
2023-02-22T07:39:43.761Z,100.00
2023-02-22T07:43:01.822Z,100.00
2023-02-22T07:46:03.601Z,100.00
2023-02-22T07:49:05.028Z,100.00
2023-02-22T07:52:07.674Z,100.00
2023-02-22T07:55:09.063Z,100.00
2023-02-22T07:58:15.089Z,100.00
2023-02-22T08:01:16.917Z,100.00
2023-02-22T08:04:18.568Z,100.00
2023-02-22T08:07:19.990Z,100.00
2023-02-22T08:10:23.382Z,100.00
2023-02-22T08:13:25.067Z,100.00
2023-02-22T08:16:26.529Z,100.00
2023-02-22T08:19:27.913Z,100.00
2023-02-22T08:22:29.471Z,100.00
2023-02-22T08:25:30.957Z,100.00
2023-02-22T08:28:32.360Z,100.00
2023-02-22T08:31:33.777Z,99.76
2023-02-22T08:34:38.794Z,99.16
2023-02-22T08:37:48.601Z,99.21
2023-02-22T08:40:50.275Z,98.58
2023-02-22T08:43:51.691Z,96.98
2023-02-22T08:46:53.663Z,91.60
2023-02-22T08:49:55.248Z,90.82
2023-02-22T08:52:59.425Z,90.85
2023-02-22T08:56:00.859Z,88.37
2023-02-22T08:59:02.673Z,86.97
2023-02-22T09:02:04.498Z,86.30
2023-02-22T09:05:06.961Z,86.44
2023-02-22T09:08:08.583Z,84.41
2023-02-22T09:11:10.104Z,82.83
2023-02-22T09:14:11.511Z,82.81
2023-02-22T09:17:12.946Z,81.81
2023-02-22T09:20:17.809Z,80.49
2023-02-22T09:23:21.644Z,80.52
2023-02-22T09:26:27.754Z,81.37
2023-02-22T09:29:29.133Z,82.32
2023-02-22T09:32:30.742Z,81.06
2023-02-22T09:35:35.905Z,82.63
2023-02-22T09:38:37.366Z,81.98
2023-02-22T09:41:52.598Z,80.70
2023-02-22T09:45:03.336Z,78.22
2023-02-22T09:48:21.247Z,77.71
2023-02-22T09:51:27.892Z,77.24
2023-02-22T09:54:38.428Z,77.22
2023-02-22T09:57:43.428Z,76.72
2023-02-22T10:00:48.562Z,77.18
2023-02-22T10:04:02.665Z,77.06
2023-02-22T10:07:25.909Z,77.32
2023-02-22T10:10:33.509Z,76.45
2023-02-22T10:13:55.123Z,73.88
2023-02-22T10:17:06.416Z,73.11
2023-02-22T10:20:16.523Z,73.80
2023-02-22T10:23:38.881Z,72.67
2023-02-22T10:26:43.712Z,72.51
2023-02-22T10:29:51.945Z,72.61
2023-02-22T10:33:21.830Z,72.87
2023-02-22T10:36:24.975Z,71.17
2023-02-22T10:39:34.635Z,70.38
2023-02-22T10:42:39.378Z,67.94
2023-02-22T10:45:41.184Z,69.34
2023-02-22T10:48:47.030Z,65.64
2023-02-22T10:52:00.578Z,67.23
2023-02-22T10:55:17.448Z,64.98
2023-02-22T10:58:19.060Z,66.97
2023-02-22T11:01:47.031Z,65.86
2023-02-22T11:04:51.952Z,65.96
2023-02-22T11:08:32.909Z,64.54
2023-02-22T11:11:34.300Z,64.31
2023-02-22T11:14:35.705Z,63.75
2023-02-22T11:17:37.131Z,64.05
2023-02-22T11:20:39.561Z,64.11
2023-02-22T11:23:44.941Z,63.93
2023-02-22T11:26:49.999Z,63.82
2023-02-22T11:29:51.907Z,64.41
2023-02-22T11:32:57.172Z,63.56
2023-02-22T11:36:08.565Z,62.58
2023-02-22T11:39:34.157Z,62.16
2023-02-22T11:42:35.606Z,60.54
2023-02-22T11:45:38.582Z,59.42
2023-02-22T11:48:53.818Z,59.64
2023-02-22T11:52:16.127Z,60.44
2023-02-22T11:55:41.850Z,60.89
2023-02-22T11:58:59.853Z,60.40
2023-02-22T12:02:31.521Z,59.62
2023-02-22T12:05:59.524Z,60.00
2023-02-22T12:09:33.014Z,60.77
2023-02-22T12:12:51.075Z,59.66
2023-02-22T12:16:13.925Z,59.68
2023-02-22T12:19:36.105Z,59.07
2023-02-22T12:22:44.404Z,59.27
2023-02-22T12:25:58.339Z,58.27
2023-02-22T12:29:14.757Z,58.18
2023-02-22T12:32:38.522Z,58.15
2023-02-22T12:35:51.476Z,57.88
2023-02-22T12:39:00.471Z,56.98
2023-02-22T12:42:05.037Z,58.72
2023-02-22T12:45:16.829Z,57.98
2023-02-22T12:48:35.323Z,57.40
2023-02-22T12:51:52.014Z,56.76
2023-02-22T12:55:06.381Z,57.21
2023-02-22T12:58:20.255Z,56.17
2023-02-22T13:01:27.562Z,55.27
2023-02-22T13:04:31.798Z,54.24
2023-02-22T13:08:05.150Z,54.96
2023-02-22T13:11:42.118Z,54.64
2023-02-22T13:15:01.037Z,54.96
2023-02-22T13:18:26.780Z,56.08
2023-02-22T13:21:42.130Z,54.72
2023-02-22T13:25:10.051Z,54.34
2023-02-22T13:28:22.061Z,54.54
2023-02-22T13:31:50.391Z,54.82
2023-02-22T13:35:13.415Z,53.25
2023-02-22T13:38:37.595Z,53.40
2023-02-22T13:41:51.408Z,53.91
2023-02-22T13:45:23.834Z,54.28
2023-02-22T13:48:46.615Z,54.35
2023-02-22T13:51:55.009Z,54.20
2023-02-22T13:55:01.131Z,54.21
2023-02-22T13:58:08.705Z,54.08
2023-02-22T14:01:52.828Z,53.48
2023-02-22T14:04:54.273Z,53.37
2023-02-22T14:07:55.953Z,53.95
2023-02-22T14:10:59.189Z,53.90
2023-02-22T14:14:03.185Z,53.14
2023-02-22T14:17:21.707Z,51.75
2023-02-22T14:20:31.074Z,51.16
2023-02-22T14:23:40.641Z,51.38
2023-02-22T14:26:55.065Z,50.09
2023-02-22T14:30:00.329Z,50.75
2023-02-22T14:33:02.542Z,52.06
2023-02-22T14:36:04.160Z,52.19
2023-02-22T14:39:12.666Z,51.91
2023-02-22T14:42:17.768Z,51.52
2023-02-22T14:45:35.278Z,51.72
2023-02-22T14:48:42.837Z,51.75
2023-02-22T14:51:55.607Z,52.02
2023-02-22T14:55:22.238Z,52.48
2023-02-22T14:58:31.909Z,51.71
2023-02-22T15:01:50.856Z,52.25
2023-02-22T15:04:56.136Z,51.65
2023-02-22T15:08:01.010Z,52.11
2023-02-22T15:11:02.430Z,52.60
2023-02-22T15:14:25.779Z,52.79
2023-02-22T15:17:27.643Z,52.41
2023-02-22T15:20:29.802Z,51.41
2023-02-22T15:23:41.681Z,51.60
2023-02-22T15:27:00.118Z,51.35
2023-02-22T15:30:05.520Z,52.53
2023-02-22T15:33:16.572Z,52.25
2023-02-22T15:36:20.345Z,52.94
2023-02-22T15:39:25.428Z,53.11
2023-02-22T15:42:29.397Z,53.88
2023-02-22T15:45:32.357Z,53.88
2023-02-22T15:48:35.592Z,53.95
2023-02-22T15:51:42.269Z,54.15
2023-02-22T15:54:48.449Z,53.95
2023-02-22T15:57:50.718Z,54.73
2023-02-22T16:01:06.273Z,55.61
2023-02-22T16:04:16.919Z,55.77
2023-02-22T16:07:21.131Z,55.84
2023-02-22T16:10:27.197Z,56.43
2023-02-22T16:13:33.163Z,56.21
2023-02-22T16:16:40.586Z,56.63
2023-02-22T16:19:44.997Z,56.54
2023-02-22T16:22:50.861Z,57.00
2023-02-22T16:26:23.238Z,56.88
2023-02-22T16:29:26.571Z,57.33
2023-02-22T16:32:28.041Z,57.95
2023-02-22T16:35:29.683Z,58.41
2023-02-22T16:38:32.769Z,58.95
2023-02-22T16:41:34.377Z,58.71
2023-02-22T16:44:35.772Z,59.50
2023-02-22T16:47:37.413Z,60.08
2023-02-22T16:50:38.814Z,60.73
2023-02-22T16:53:40.253Z,61.16
2023-02-22T16:56:41.710Z,62.53
2023-02-22T16:59:43.335Z,62.61
2023-02-22T17:02:45.254Z,62.94
2023-02-22T17:05:46.806Z,63.85
2023-02-22T17:08:51.776Z,64.35
2023-02-22T17:11:54.151Z,64.39
2023-02-22T17:14:55.803Z,65.26
2023-02-22T17:17:57.231Z,65.20
2023-02-22T17:20:58.647Z,65.85
2023-02-22T17:24:00.140Z,66.58
2023-02-22T17:27:02.017Z,67.16
2023-02-22T17:30:04.712Z,67.14
2023-02-22T17:33:09.006Z,67.13
2023-02-22T17:36:10.403Z,67.58
2023-02-22T17:39:13.345Z,67.97
2023-02-22T17:42:15.435Z,68.51
2023-02-22T17:45:17.127Z,68.78
2023-02-22T17:48:18.557Z,69.49
2023-02-22T17:51:21.382Z,69.95
2023-02-22T17:54:23.001Z,70.80
2023-02-22T17:57:25.173Z,71.66
2023-02-22T18:00:33.229Z,72.25
2023-02-22T18:03:34.732Z,73.09
2023-02-22T18:06:37.975Z,74.59
2023-02-22T18:09:39.650Z,75.40
2023-02-22T18:12:43.121Z,76.15
2023-02-22T18:15:46.216Z,76.10
2023-02-22T18:18:49.376Z,76.68
2023-02-22T18:21:51.057Z,77.34
2023-02-22T18:24:56.871Z,77.87
2023-02-22T18:28:02.563Z,78.21
2023-02-22T18:31:16.058Z,79.22
2023-02-22T18:34:17.586Z,80.24
2023-02-22T18:37:20.390Z,80.84
2023-02-22T18:40:21.820Z,81.42
2023-02-22T18:43:23.252Z,82.24
2023-02-22T18:46:25.365Z,82.74
2023-02-22T18:49:26.955Z,83.33
2023-02-22T18:52:30.898Z,83.94
2023-02-22T18:55:34.627Z,84.90
2023-02-22T18:58:38.493Z,85.33
2023-02-22T19:01:40.817Z,85.97
2023-02-22T19:04:44.067Z,86.50
2023-02-22T19:07:45.540Z,87.70
2023-02-22T19:10:49.445Z,88.54
2023-02-22T19:13:53.710Z,88.90
2023-02-22T19:16:58.973Z,90.00
2023-02-22T19:20:00.354Z,90.72
2023-02-22T19:23:02.303Z,90.96
2023-02-22T19:26:04.328Z,91.90
2023-02-22T19:29:08.329Z,92.31
2023-02-22T19:32:11.328Z,92.59
2023-02-22T19:35:26.025Z,93.49
2023-02-22T19:38:27.688Z,92.03
2023-02-22T19:41:29.706Z,92.09
2023-02-22T19:44:32.850Z,95.18
2023-02-22T19:47:34.398Z,96.47
2023-02-22T19:50:35.940Z,96.83
2023-02-22T19:53:41.598Z,96.29
2023-02-22T19:56:43.173Z,95.59
2023-02-22T19:59:44.848Z,96.93
2023-02-22T20:02:46.237Z,98.28
2023-02-22T20:05:47.685Z,97.96
2023-02-22T20:08:50.924Z,97.22
2023-02-22T20:11:52.349Z,98.22
2023-02-22T20:14:53.727Z,99.20
2023-02-22T20:17:55.648Z,100.00
2023-02-22T20:20:57.040Z,100.00
2023-02-22T20:24:04.535Z,100.00
2023-02-22T20:27:06.295Z,100.00
2023-02-22T20:30:10.358Z,100.00
2023-02-22T20:33:13.468Z,100.00
2023-02-22T20:36:18.386Z,100.00
2023-02-22T20:39:19.915Z,100.00
2023-02-22T20:42:21.310Z,100.00
2023-02-22T20:45:23.140Z,100.00
2023-02-22T20:48:24.604Z,100.00
2023-02-22T20:51:27.461Z,100.00
2023-02-22T20:54:28.913Z,100.00
2023-02-22T20:57:30.697Z,100.00
2023-02-22T21:00:32.150Z,100.00
2023-02-22T21:03:34.682Z,100.00
2023-02-22T21:06:37.741Z,100.00
2023-02-22T21:09:40.274Z,100.00
2023-02-22T21:12:42.737Z,100.00
2023-02-22T21:15:46.954Z,100.00
2023-02-22T21:18:53.885Z,100.00
2023-02-22T21:21:56.851Z,100.00
2023-02-22T21:24:58.756Z,100.00
2023-02-22T21:28:00.152Z,100.00
2023-02-22T21:31:06.944Z,100.00
2023-02-22T21:34:11.992Z,100.00
2023-02-22T21:37:17.944Z,100.00
2023-02-22T21:40:19.610Z,100.00
2023-02-22T21:43:21.088Z,100.00
2023-02-22T21:46:22.978Z,100.00
2023-02-22T21:49:25.661Z,100.00
2023-02-22T21:52:27.390Z,100.00
2023-02-22T21:55:29.674Z,100.00
2023-02-22T21:58:31.595Z,100.00
2023-02-22T22:01:35.763Z,100.00
2023-02-22T22:04:37.224Z,100.00
2023-02-22T22:07:38.609Z,100.00
2023-02-22T22:10:40.012Z,100.00
2023-02-22T22:13:42.088Z,100.00
2023-02-22T22:16:46.780Z,100.00
2023-02-22T22:19:48.872Z,100.00
2023-02-22T22:22:50.312Z,100.00
2023-02-22T22:25:51.748Z,100.00
2023-02-22T22:28:56.190Z,100.00
2023-02-22T22:31:57.880Z,100.00
2023-02-22T22:34:59.368Z,100.00
2023-02-22T22:38:01.058Z,100.00
2023-02-22T22:41:05.453Z,100.00
2023-02-22T22:44:09.433Z,100.00
2023-02-22T22:47:13.939Z,100.00
2023-02-22T22:50:18.819Z,100.00
2023-02-22T22:53:20.214Z,100.00
2023-02-22T22:56:26.180Z,100.00
2023-02-22T22:59:28.665Z,100.00
2023-02-22T23:02:30.857Z,100.00
2023-02-22T23:05:38.356Z,100.00
2023-02-22T23:08:45.872Z,100.00
2023-02-22T23:11:50.734Z,100.00
2023-02-22T23:14:52.470Z,100.00
2023-02-22T23:17:59.128Z,100.00
2023-02-22T23:21:05.257Z,100.00
2023-02-22T23:24:06.762Z,100.00
2023-02-22T23:27:10.580Z,100.00
2023-02-22T23:30:15.326Z,100.00
2023-02-22T23:33:16.713Z,100.00
2023-02-22T23:36:19.578Z,100.00
2023-02-22T23:39:22.703Z,100.00
2023-02-22T23:42:24.095Z,100.00
2023-02-22T23:45:25.491Z,100.00
2023-02-22T23:48:29.931Z,100.00
2023-02-22T23:51:39.126Z,100.00
2023-02-22T23:54:43.742Z,100.00
2023-02-22T23:57:45.297Z,100.00
